PWSweather.com
Personal Weather Stations
Station Observations
ALMOSTER
Urb. Mas Carreras, AlmosterES 43393

Urb. Mas CarrerasAlmosterES 43393

Lat: 41.1908333333, Lon: 1.1086111111

Elevation: 836.6

Station Type: Davis Vantage Pro 2

http://www.meteoalmoster.net

High Low Average
Temperature 49.5°F9.7°C 41.5°F5.3°C 44.0°F6.7°C
Dew Point 48.0°F8.9°C 37.4°F3.0°C 41.0°F5.0°C
Winds 12.0 mph 19.3 kmh Calm Calm 2.0 mph SE3.2 kmh SE
Wind Gusts 24.0 mph38.6 kmh 1.0 mph1.6 kmh 8.0 mph12.9 kmh
Humidity 96% 74% 89%
Pressure 30.20 in1022.7 mb 30.03 in1016.9 mb -
Precipitation 0.31 in7.9 mm - -
Hour Temp Dew Point Humidity Winds Wind Gusts Pressure Precip Precip Rate Daily Precip Total
12:00 AM 49.5°F9.7°C 48.0°F8.9°C 95% 1.0 mph ENE1.6 kmh ENE 2.0 mph3.2 kmh 30.09 in1019.0 mb 0.00 in0.0 mm 0.00 in0.0 mm 0.01 in0.3 mm
12:30 AM 48.9°F9.4°C 46.8°F8.2°C 92% Calm Calm 3.0 mph4.8 kmh 30.09 in1019.0 mb 0.00 in0.0 mm 0.00 in0.0 mm 0.01 in0.3 mm
01:00 AM 48.4°F9.1°C 44.4°F6.9°C 86% 3.0 mph NE4.8 kmh NE 9.0 mph14.5 kmh 30.08 in1018.6 mb 0.00 in0.0 mm 0.00 in0.0 mm 0.00 in0.0 mm
01:30 AM 48.2°F9.0°C 45.7°F7.6°C 91% Calm Calm 2.0 mph3.2 kmh 30.07 in1018.3 mb 0.00 in0.0 mm 0.00 in0.0 mm 0.00 in0.0 mm
02:00 AM 48.0°F8.9°C 46.4°F8.0°C 94% Calm Calm 1.0 mph1.6 kmh 30.07 in1018.3 mb 0.00 in0.0 mm 0.00 in0.0 mm 0.00 in0.0 mm
02:30 AM 48.0°F8.9°C 46.4°F8.0°C 94% 1.0 mph NE1.6 kmh NE 4.0 mph6.4 kmh 30.06 in1017.9 mb 0.00 in0.0 mm 0.00 in0.0 mm 0.00 in0.0 mm
03:00 AM 47.5°F8.6°C 44.8°F7.1°C 90% Calm Calm 3.0 mph4.8 kmh 30.06 in1017.9 mb 0.00 in0.0 mm 0.00 in0.0 mm 0.00 in0.0 mm
03:30 AM 46.2°F7.9°C 44.1°F6.7°C 92% 2.0 mph NW3.2 kmh NW 6.0 mph9.7 kmh 30.05 in1017.6 mb 0.04 in1.0 mm 0.08 in2.0 mm 0.04 in1.0 mm
04:00 AM 45.0°F7.2°C 43.3°F6.3°C 94% 2.0 mph N3.2 kmh N 8.0 mph12.9 kmh 30.05 in1017.6 mb 0.10 in2.5 mm 0.12 in3.0 mm 0.10 in2.5 mm
04:30 AM 44.6°F7.0°C 42.6°F5.9°C 93% 3.0 mph NNE4.8 kmh NNE 9.0 mph14.5 kmh 30.04 in1017.3 mb 0.10 in2.5 mm 0.00 in0.0 mm 0.14 in3.6 mm
05:00 AM 44.4°F6.9°C 43.0°F6.1°C 95% 1.0 mph N1.6 kmh N 6.0 mph9.7 kmh 30.05 in1017.6 mb 0.09 in2.3 mm 0.00 in0.0 mm 0.19 in4.8 mm
05:30 AM 43.5°F6.4°C 42.4°F5.8°C 96% 2.0 mph NNE3.2 kmh NNE 14.0 mph22.5 kmh 30.05 in1017.6 mb 0.06 in1.5 mm 0.00 in0.0 mm 0.20 in5.1 mm
06:00 AM 43.2°F6.2°C 42.1°F5.6°C 96% 2.0 mph WNW3.2 kmh WNW 7.0 mph11.3 kmh 30.04 in1017.3 mb 0.01 in0.3 mm 0.00 in0.0 mm 0.20 in5.1 mm
06:30 AM 43.3°F6.3°C 41.9°F5.5°C 95% 4.0 mph NNE6.4 kmh NNE 14.0 mph22.5 kmh 30.03 in1016.9 mb 0.00 in0.0 mm 0.00 in0.0 mm 0.20 in5.1 mm
07:00 AM 44.1°F6.7°C 41.9°F5.5°C 92% 4.0 mph ENE6.4 kmh ENE 13.0 mph20.9 kmh 30.03 in1016.9 mb 0.00 in0.0 mm 0.00 in0.0 mm 0.20 in5.1 mm
07:30 AM 43.7°F6.5°C 42.4°F5.8°C 95% 5.0 mph WNW8.0 kmh WNW 9.0 mph14.5 kmh 30.05 in1017.6 mb 0.00 in0.0 mm 0.00 in0.0 mm 0.20 in5.1 mm
08:00 AM 43.5°F6.4°C 42.1°F5.6°C 95% 5.0 mph E8.0 kmh E 9.0 mph14.5 kmh 30.05 in1017.6 mb 0.00 in0.0 mm 0.00 in0.0 mm 0.20 in5.1 mm
08:30 AM 44.4°F6.9°C 41.7°F5.4°C 90% 5.0 mph SE8.0 kmh SE 13.0 mph20.9 kmh 30.06 in1017.9 mb 0.00 in0.0 mm 0.00 in0.0 mm 0.20 in5.1 mm
09:00 AM 44.2°F6.8°C 40.6°F4.8°C 87% 1.0 mph E1.6 kmh E 7.0 mph11.3 kmh 30.07 in1018.3 mb 0.00 in0.0 mm 0.00 in0.0 mm 0.20 in5.1 mm
09:30 AM 44.2°F6.8°C 42.1°F5.6°C 92% Calm Calm 1.0 mph1.6 kmh 30.09 in1019.0 mb 0.00 in0.0 mm 0.00 in0.0 mm 0.20 in5.1 mm
10:00 AM 43.2°F6.2°C 41.2°F5.1°C 93% 4.0 mph NE6.4 kmh NE 13.0 mph20.9 kmh 30.09 in1019.0 mb 0.03 in0.8 mm 0.06 in1.5 mm 0.23 in5.8 mm
10:30 AM 43.2°F6.2°C 40.1°F4.5°C 89% 7.0 mph ENE11.3 kmh ENE 16.0 mph25.7 kmh 30.09 in1019.0 mb 0.05 in1.3 mm 0.04 in1.0 mm 0.24 in6.1 mm
11:00 AM 43.2°F6.2°C 39.6°F4.2°C 87% 5.0 mph NE8.0 kmh NE 13.0 mph20.9 kmh 30.10 in1019.3 mb 0.02 in0.5 mm 0.00 in0.0 mm 0.24 in6.1 mm
11:30 AM 42.4°F5.8°C 39.2°F4.0°C 88% 11.0 mph ENE17.7 kmh ENE 24.0 mph38.6 kmh 30.11 in1019.6 mb 0.02 in0.5 mm 0.00 in0.0 mm 0.27 in6.9 mm
12:00 PM 41.5°F5.3°C 38.3°F3.5°C 88% 12.0 mph ENE19.3 kmh ENE 24.0 mph38.6 kmh 30.11 in1019.6 mb 0.04 in1.0 mm 0.04 in1.0 mm 0.28 in7.1 mm
12:30 PM 42.1°F5.6°C 39.0°F3.9°C 89% 4.0 mph NE6.4 kmh NE 12.0 mph19.3 kmh 30.11 in1019.6 mb 0.02 in0.5 mm 0.00 in0.0 mm 0.29 in7.4 mm
01:00 PM 42.4°F5.8°C 39.7°F4.3°C 90% 3.0 mph NE4.8 kmh NE 12.0 mph19.3 kmh 30.11 in1019.6 mb 0.02 in0.5 mm 0.00 in0.0 mm 0.31 in7.9 mm
01:30 PM 42.6°F5.9°C 38.1°F3.4°C 84% 9.0 mph NE14.5 kmh NE 20.0 mph32.2 kmh 30.11 in1019.6 mb 0.02 in0.5 mm 0.00 in0.0 mm 0.31 in7.9 mm
02:00 PM 42.6°F5.9°C 39.7°F4.3°C 89% 1.0 mph N1.6 kmh N 9.0 mph14.5 kmh 30.11 in1019.6 mb 0.01 in0.3 mm 0.00 in0.0 mm 0.31 in7.9 mm
02:30 PM 43.2°F6.2°C 38.7°F3.7°C 84% 3.0 mph NNE4.8 kmh NNE 15.0 mph24.1 kmh 30.12 in1020.0 mb 0.00 in0.0 mm 0.00 in0.0 mm 0.31 in7.9 mm
03:00 PM 43.2°F6.2°C 38.7°F3.7°C 84% 4.0 mph NE6.4 kmh NE 16.0 mph25.7 kmh 30.12 in1020.0 mb 0.00 in0.0 mm 0.00 in0.0 mm 0.31 in7.9 mm
03:30 PM 42.8°F6.0°C 39.6°F4.2°C 88% Calm Calm 2.0 mph3.2 kmh 30.12 in1020.0 mb 0.00 in0.0 mm 0.00 in0.0 mm 0.31 in7.9 mm
04:00 PM 43.5°F6.4°C 39.0°F3.9°C 84% 1.0 mph NW1.6 kmh NW 4.0 mph6.4 kmh 30.13 in1020.3 mb 0.00 in0.0 mm 0.00 in0.0 mm 0.31 in7.9 mm
04:30 PM 44.8°F7.1°C 37.4°F3.0°C 75% 4.0 mph ENE6.4 kmh ENE 12.0 mph19.3 kmh 30.13 in1020.3 mb 0.00 in0.0 mm 0.00 in0.0 mm 0.31 in7.9 mm
05:00 PM 43.3°F6.3°C 39.6°F4.2°C 86% 2.0 mph SE3.2 kmh SE 9.0 mph14.5 kmh 30.13 in1020.3 mb 0.00 in0.0 mm 0.00 in0.0 mm 0.31 in7.9 mm
05:30 PM 45.3°F7.4°C 37.6°F3.1°C 74% 1.0 mph ENE1.6 kmh ENE 8.0 mph12.9 kmh 30.14 in1020.7 mb 0.00 in0.0 mm 0.00 in0.0 mm 0.31 in7.9 mm
06:00 PM 43.0°F6.1°C 40.1°F4.5°C 90% 1.0 mph S1.6 kmh S 4.0 mph6.4 kmh 30.15 in1021.0 mb 0.00 in0.0 mm 0.00 in0.0 mm 0.31 in7.9 mm
06:30 PM 41.7°F5.4°C 40.3°F4.6°C 94% Calm Calm 1.0 mph1.6 kmh 30.15 in1021.0 mb 0.00 in0.0 mm 0.00 in0.0 mm 0.31 in7.9 mm
07:00 PM 41.7°F5.4°C 40.5°F4.7°C 95% Calm Calm 1.0 mph1.6 kmh 30.16 in1021.3 mb 0.00 in0.0 mm 0.00 in0.0 mm 0.31 in7.9 mm
07:30 PM 41.9°F5.5°C 40.1°F4.5°C 93% Calm Calm 1.0 mph1.6 kmh 30.17 in1021.7 mb 0.00 in0.0 mm 0.00 in0.0 mm 0.31 in7.9 mm
08:00 PM 42.1°F5.6°C 39.9°F4.4°C 92% Calm Calm 1.0 mph1.6 kmh 30.17 in1021.7 mb 0.00 in0.0 mm 0.00 in0.0 mm 0.31 in7.9 mm
08:30 PM 42.6°F5.9°C 39.4°F4.1°C 88% Calm Calm 1.0 mph1.6 kmh 30.18 in1022.0 mb 0.00 in0.0 mm 0.00 in0.0 mm 0.31 in7.9 mm
09:00 PM 42.4°F5.8°C 38.8°F3.8°C 87% Calm Calm 1.0 mph1.6 kmh 30.18 in1022.0 mb 0.00 in0.0 mm 0.00 in0.0 mm 0.31 in7.9 mm
09:30 PM 42.6°F5.9°C 39.4°F4.1°C 88% Calm Calm 2.0 mph3.2 kmh 30.18 in1022.0 mb 0.00 in0.0 mm 0.00 in0.0 mm 0.31 in7.9 mm
10:00 PM 43.2°F6.2°C 38.7°F3.7°C 84% 1.0 mph NNE1.6 kmh NNE 9.0 mph14.5 kmh 30.19 in1022.4 mb 0.00 in0.0 mm 0.00 in0.0 mm 0.31 in7.9 mm
10:30 PM 43.7°F6.5°C 38.5°F3.6°C 82% 1.0 mph NNE1.6 kmh NNE 9.0 mph14.5 kmh 30.19 in1022.4 mb 0.00 in0.0 mm 0.00 in0.0 mm 0.31 in7.9 mm
11:00 PM 43.0°F6.1°C 38.1°F3.4°C 83% 1.0 mph NW1.6 kmh NW 4.0 mph6.4 kmh 30.20 in1022.7 mb 0.00 in0.0 mm 0.00 in0.0 mm 0.31 in7.9 mm
11:30 PM 42.6°F5.9°C 37.9°F3.3°C 83% Calm Calm 3.0 mph4.8 kmh 30.20 in1022.7 mb 0.00 in0.0 mm 0.00 in0.0 mm 0.31 in7.9 mm